createdAt,value
2017-11-25T00:01:35.792Z,87.61
2017-11-25T00:04:02.126Z,87.98
2017-11-25T00:06:28.488Z,88.27
2017-11-25T00:08:55.178Z,88.60
2017-11-25T00:11:21.964Z,88.75
2017-11-25T00:13:48.472Z,88.88
2017-11-25T00:16:15.100Z,88.81
2017-11-25T00:18:41.579Z,89.04
2017-11-25T00:21:08.170Z,89.39
2017-11-25T00:23:34.814Z,89.67
2017-11-25T00:26:01.390Z,89.90
2017-11-25T00:28:28.349Z,89.90
2017-11-25T00:30:54.882Z,89.94
2017-11-25T00:33:21.493Z,90.08
2017-11-25T00:35:48.256Z,89.54
2017-11-25T00:38:14.579Z,89.41
2017-11-25T00:40:41.176Z,89.85
2017-11-25T00:43:07.581Z,90.09
2017-11-25T00:45:34.102Z,90.04
2017-11-25T00:48:00.608Z,90.22
2017-11-25T00:50:26.959Z,90.38
2017-11-25T00:52:53.696Z,90.52
2017-11-25T00:55:20.190Z,90.67
2017-11-25T00:57:46.482Z,90.89
2017-11-25T01:00:13.125Z,90.76
2017-11-25T01:02:39.701Z,90.97
2017-11-25T01:05:07.082Z,91.21
2017-11-25T01:07:33.565Z,91.29
2017-11-25T01:09:59.985Z,91.35
2017-11-25T01:12:26.619Z,91.58
2017-11-25T01:14:53.319Z,91.65
2017-11-25T01:17:20.193Z,91.72
2017-11-25T01:19:46.722Z,91.77
2017-11-25T01:22:13.158Z,91.78
2017-11-25T01:24:39.737Z,91.57
2017-11-25T01:27:06.324Z,91.61
2017-11-25T01:29:32.831Z,91.83
2017-11-25T01:31:59.188Z,91.87
2017-11-25T01:34:25.607Z,91.83
2017-11-25T01:36:52.389Z,91.97
2017-11-25T01:39:18.773Z,92.19
2017-11-25T01:41:45.366Z,92.15
2017-11-25T01:44:11.760Z,92.21
2017-11-25T01:46:38.400Z,92.27
2017-11-25T01:49:04.775Z,92.41
2017-11-25T01:51:31.254Z,92.43
2017-11-25T01:53:57.858Z,92.39
2017-11-25T01:56:24.301Z,92.32
2017-11-25T01:58:50.717Z,92.22
2017-11-25T02:01:17.043Z,92.50
2017-11-25T02:03:43.734Z,92.39
2017-11-25T02:06:10.082Z,92.53
2017-11-25T02:08:36.698Z,92.65
2017-11-25T02:11:03.463Z,92.79
2017-11-25T02:13:29.738Z,92.79
2017-11-25T02:15:56.486Z,92.86
2017-11-25T02:18:23.188Z,92.95
2017-11-25T02:20:49.563Z,92.96
2017-11-25T02:23:16.344Z,92.93
2017-11-25T02:25:42.943Z,92.82
2017-11-25T02:28:09.653Z,92.77
2017-11-25T02:30:36.101Z,92.69
2017-11-25T02:33:02.768Z,92.58
2017-11-25T02:35:29.537Z,92.31
2017-11-25T02:37:56.008Z,92.42
2017-11-25T02:40:22.498Z,92.44
2017-11-25T02:42:49.029Z,92.45
2017-11-25T02:45:15.561Z,92.53
2017-11-25T02:47:42.091Z,92.52
2017-11-25T02:50:08.480Z,92.57
2017-11-25T02:52:34.918Z,92.64
2017-11-25T02:55:01.344Z,92.67
2017-11-25T02:57:27.967Z,92.69
2017-11-25T02:59:54.468Z,92.80
2017-11-25T03:02:21.074Z,93.25
2017-11-25T03:04:47.353Z,93.55
2017-11-25T03:07:13.930Z,93.50
2017-11-25T03:09:40.604Z,93.57
2017-11-25T03:12:06.934Z,93.53
2017-11-25T03:14:33.495Z,93.72
2017-11-25T03:16:59.903Z,93.95
2017-11-25T03:19:26.350Z,93.46
2017-11-25T03:21:52.844Z,93.91
2017-11-25T03:24:19.416Z,94.05
2017-11-25T03:26:45.779Z,94.21
2017-11-25T03:29:12.140Z,93.50
2017-11-25T03:31:38.642Z,94.04
2017-11-25T03:34:05.059Z,94.09
2017-11-25T03:36:31.416Z,94.20
2017-11-25T03:38:57.865Z,94.39
2017-11-25T03:41:24.411Z,94.09
2017-11-25T03:43:50.703Z,94.15
2017-11-25T03:46:17.292Z,94.21
2017-11-25T03:48:43.885Z,94.29
2017-11-25T03:51:10.154Z,94.32
2017-11-25T03:53:37.056Z,94.32
2017-11-25T03:56:03.771Z,94.40
2017-11-25T03:58:30.348Z,94.49
2017-11-25T04:00:56.751Z,94.59
2017-11-25T04:03:23.256Z,94.63
2017-11-25T04:05:49.617Z,94.72
2017-11-25T04:08:15.974Z,94.79
2017-11-25T04:10:43.368Z,94.57
2017-11-25T04:13:09.633Z,94.61
2017-11-25T04:15:36.074Z,94.67
2017-11-25T04:18:02.418Z,94.80
2017-11-25T04:20:28.727Z,94.80
2017-11-25T04:22:55.116Z,94.86
2017-11-25T04:25:21.481Z,94.65
2017-11-25T04:27:47.945Z,94.47
2017-11-25T04:30:14.419Z,94.32
2017-11-25T04:32:40.863Z,94.05
2017-11-25T04:35:07.254Z,94.19
2017-11-25T04:37:33.508Z,94.10
2017-11-25T04:39:59.992Z,94.07
2017-11-25T04:42:26.350Z,94.32
2017-11-25T04:44:52.853Z,94.41
2017-11-25T04:47:19.579Z,94.37
2017-11-25T04:49:45.877Z,94.37
2017-11-25T04:52:12.182Z,94.33
2017-11-25T04:54:38.692Z,94.40
2017-11-25T04:57:04.979Z,94.20
2017-11-25T04:59:31.287Z,94.29
2017-11-25T05:01:57.792Z,94.32
2017-11-25T05:04:24.253Z,94.34
2017-11-25T05:06:50.795Z,94.31
2017-11-25T05:09:17.378Z,94.36
2017-11-25T05:11:43.814Z,94.41
2017-11-25T05:14:10.357Z,94.20
2017-11-25T05:16:37.082Z,94.27
2017-11-25T05:19:03.674Z,94.23
2017-11-25T05:21:30.217Z,94.24
2017-11-25T05:23:56.760Z,94.33
2017-11-25T05:26:23.543Z,94.30
2017-11-25T05:28:49.664Z,94.20
2017-11-25T05:31:15.733Z,94.33
2017-11-25T05:33:41.939Z,94.32
2017-11-25T05:36:08.075Z,94.48
2017-11-25T05:38:34.682Z,94.82
2017-11-25T05:41:01.185Z,94.34
2017-11-25T05:43:28.175Z,93.41
2017-11-25T05:45:54.777Z,92.61
2017-11-25T05:48:21.007Z,92.17
2017-11-25T05:50:47.413Z,92.11
2017-11-25T05:53:13.713Z,92.41
2017-11-25T05:55:39.761Z,93.14
2017-11-25T05:58:05.924Z,93.55
2017-11-25T06:00:32.192Z,94.17
2017-11-25T06:02:58.253Z,94.32
2017-11-25T06:05:24.335Z,94.52
2017-11-25T06:07:50.383Z,94.96
2017-11-25T06:10:16.432Z,95.32
2017-11-25T06:12:43.056Z,95.84
2017-11-25T06:15:09.173Z,95.83
2017-11-25T06:17:35.253Z,95.57
2017-11-25T06:20:01.407Z,95.19
2017-11-25T06:22:27.714Z,94.98
2017-11-25T06:24:53.817Z,94.64
2017-11-25T06:27:19.899Z,94.74
2017-11-25T06:29:46.028Z,94.18
2017-11-25T06:32:12.185Z,94.30
2017-11-25T06:34:38.357Z,94.32
2017-11-25T06:37:04.804Z,94.66
2017-11-25T06:39:31.035Z,93.91
2017-11-25T06:41:58.514Z,93.72
2017-11-25T06:44:24.692Z,93.91
2017-11-25T06:46:50.894Z,94.16
2017-11-25T06:49:17.304Z,94.17
2017-11-25T06:51:43.405Z,94.00
2017-11-25T06:54:09.636Z,94.04
2017-11-25T06:56:35.762Z,94.36
2017-11-25T06:59:01.921Z,94.65
2017-11-25T07:01:27.957Z,94.60
2017-11-25T07:03:54.078Z,94.49
2017-11-25T07:06:20.323Z,94.77
2017-11-25T07:08:46.428Z,94.48
2017-11-25T07:11:13.055Z,94.38
2017-11-25T07:13:39.425Z,94.08
2017-11-25T07:16:06.285Z,94.01
2017-11-25T07:18:32.895Z,94.06
2017-11-25T07:20:58.965Z,93.45
2017-11-25T07:23:25.769Z,93.90
2017-11-25T07:25:52.318Z,93.87
2017-11-25T07:28:18.707Z,93.74
2017-11-25T07:30:46.138Z,93.65
2017-11-25T07:33:12.661Z,93.61
2017-11-25T07:35:39.026Z,93.70
2017-11-25T07:38:05.235Z,93.96
2017-11-25T07:40:39.494Z,93.78
2017-11-25T07:48:15.091Z,93.42
2017-11-25T07:50:41.452Z,93.66
2017-11-25T07:53:07.882Z,93.73
2017-11-25T07:55:34.330Z,93.31
2017-11-25T07:58:01.776Z,93.63
2017-11-25T08:00:29.206Z,93.91
2017-11-25T08:02:55.646Z,93.19
2017-11-25T08:05:23.247Z,93.47
2017-11-25T08:07:49.310Z,93.80
2017-11-25T08:10:15.532Z,94.23
2017-11-25T08:12:41.794Z,94.10
2017-11-25T08:15:08.288Z,93.91
2017-11-25T08:17:34.386Z,94.14
2017-11-25T08:20:01.052Z,93.91
2017-11-25T08:22:27.247Z,94.35
2017-11-25T08:24:53.497Z,94.11
2017-11-25T08:27:19.903Z,93.86
2017-11-25T08:29:46.197Z,94.10
2017-11-25T08:32:12.490Z,94.32
2017-11-25T08:34:38.819Z,94.43
2017-11-25T08:37:05.549Z,93.82
2017-11-25T08:39:31.756Z,94.02
2017-11-25T08:41:58.069Z,94.19
2017-11-25T08:44:24.178Z,94.20
2017-11-25T08:46:50.525Z,94.51
2017-11-25T08:49:16.570Z,94.36
2017-11-25T08:51:42.707Z,94.17
2017-11-25T08:54:08.880Z,94.41
2017-11-25T08:56:35.125Z,94.89
2017-11-25T08:59:01.426Z,94.83
2017-11-25T09:01:28.314Z,94.13
2017-11-25T09:03:55.767Z,93.86
2017-11-25T09:06:21.897Z,93.72
2017-11-25T09:08:48.455Z,93.67
2017-11-25T09:11:14.885Z,93.93
2017-11-25T09:13:40.963Z,93.65
2017-11-25T09:16:07.192Z,93.08
2017-11-25T09:18:34.210Z,93.43
2017-11-25T09:21:00.333Z,93.77
2017-11-25T09:23:26.598Z,93.93
2017-11-25T09:25:52.869Z,94.46
2017-11-25T09:28:19.302Z,94.67
2017-11-25T09:30:45.511Z,94.49
2017-11-25T09:33:11.651Z,94.17
2017-11-25T09:35:37.883Z,93.73
2017-11-25T09:38:05.472Z,92.99
2017-11-25T09:40:34.714Z,91.68
2017-11-25T09:43:01.022Z,91.76
2017-11-25T09:45:27.174Z,91.35
2017-11-25T09:47:53.422Z,91.95
2017-11-25T09:50:19.599Z,92.04
2017-11-25T09:52:46.225Z,92.52
2017-11-25T09:55:16.112Z,92.34
2017-11-25T09:57:42.532Z,92.32
2017-11-25T10:00:08.653Z,92.38
2017-11-25T10:02:34.874Z,92.16
2017-11-25T10:05:00.975Z,92.12
2017-11-25T10:07:27.092Z,92.26
2017-11-25T10:09:53.376Z,92.71
2017-11-25T10:12:19.522Z,92.70
2017-11-25T10:14:46.167Z,92.82
2017-11-25T10:17:12.405Z,92.71
2017-11-25T10:19:38.501Z,92.72
2017-11-25T10:22:04.795Z,93.02
2017-11-25T10:24:31.046Z,93.34
2017-11-25T10:26:57.440Z,92.81
2017-11-25T10:29:23.650Z,93.01
2017-11-25T10:31:50.177Z,93.33
2017-11-25T10:34:16.345Z,93.13
2017-11-25T10:36:42.479Z,92.76
2017-11-25T10:39:08.771Z,92.44
2017-11-25T10:41:35.333Z,92.95
2017-11-25T10:44:01.493Z,93.00
2017-11-25T10:46:28.041Z,92.86
2017-11-25T10:48:54.574Z,92.68
2017-11-25T10:51:20.726Z,93.14
2017-11-25T10:53:46.902Z,92.77
2017-11-25T10:56:13.141Z,93.16
2017-11-25T10:58:39.307Z,92.82
2017-11-25T11:01:05.461Z,92.89
2017-11-25T11:03:31.591Z,92.68
2017-11-25T11:05:57.718Z,91.04
2017-11-25T11:08:23.844Z,92.00
2017-11-25T11:10:50.041Z,92.24
2017-11-25T11:13:16.631Z,92.70
2017-11-25T11:15:42.865Z,92.34
2017-11-25T11:18:09.009Z,92.21
2017-11-25T11:20:35.184Z,92.33
2017-11-25T11:23:01.312Z,92.08
2017-11-25T11:25:27.449Z,92.59
2017-11-25T11:27:53.856Z,93.10
2017-11-25T11:30:19.890Z,93.12
2017-11-25T11:32:45.946Z,93.17
2017-11-25T11:35:12.274Z,93.02
2017-11-25T11:37:38.313Z,92.37
2017-11-25T11:40:04.399Z,92.98
2017-11-25T11:42:30.457Z,93.11
2017-11-25T11:44:56.511Z,93.01
2017-11-25T11:47:22.601Z,92.45
2017-11-25T11:49:48.715Z,92.34
2017-11-25T11:52:14.891Z,92.53
2017-11-25T11:54:41.089Z,91.85
2017-11-25T11:57:07.187Z,91.99
2017-11-25T11:59:33.220Z,91.81
2017-11-25T12:01:59.368Z,91.90
2017-11-25T12:04:25.823Z,91.74
2017-11-25T12:06:52.004Z,91.51
2017-11-25T12:09:18.215Z,90.65
2017-11-25T12:11:44.490Z,90.72
2017-11-25T12:14:10.549Z,91.37
2017-11-25T12:16:36.625Z,91.50
2017-11-25T12:19:02.653Z,91.76
2017-11-25T12:21:28.721Z,90.68
2017-11-25T12:23:54.897Z,90.91
2017-11-25T12:26:20.968Z,91.26
2017-11-25T12:28:47.104Z,90.50
2017-11-25T12:31:13.164Z,90.98
2017-11-25T12:33:39.514Z,90.89
2017-11-25T12:36:05.808Z,90.36
2017-11-25T12:38:32.137Z,90.23
2017-11-25T12:40:58.196Z,90.14
2017-11-25T12:43:24.652Z,90.02
2017-11-25T12:45:50.801Z,90.59
2017-11-25T12:48:17.376Z,90.81
2017-11-25T12:50:43.609Z,89.99
2017-11-25T12:53:09.701Z,89.88
2017-11-25T12:55:35.888Z,89.95
2017-11-25T12:58:02.024Z,89.20
2017-11-25T13:00:28.224Z,89.42
2017-11-25T13:02:54.376Z,88.93
2017-11-25T13:05:20.695Z,89.46
2017-11-25T13:07:46.815Z,89.88
2017-11-25T13:10:12.924Z,89.34
2017-11-25T13:12:38.982Z,89.96
2017-11-25T13:15:05.164Z,89.93
2017-11-25T13:17:32.128Z,89.90
2017-11-25T13:19:58.276Z,89.65
2017-11-25T13:22:24.588Z,88.95
2017-11-25T13:24:50.785Z,88.44
2017-11-25T13:27:17.148Z,87.94
2017-11-25T13:29:48.008Z,87.86
2017-11-25T13:32:14.797Z,87.97
2017-11-25T13:34:40.873Z,88.13
2017-11-25T13:37:06.955Z,88.43
2017-11-25T13:39:33.145Z,88.33
2017-11-25T13:41:59.619Z,88.59
2017-11-25T13:44:25.811Z,88.98
2017-11-25T13:46:52.563Z,88.41
2017-11-25T13:49:25.758Z,88.21
2017-11-25T13:51:52.256Z,88.57
2017-11-25T13:54:18.520Z,88.72
2017-11-25T13:56:44.945Z,88.62
2017-11-25T13:59:11.295Z,89.38
2017-11-25T14:01:38.458Z,88.96
2017-11-25T14:04:04.872Z,89.40
2017-11-25T14:06:31.189Z,89.32
2017-11-25T14:08:57.606Z,89.26
2017-11-25T14:11:23.740Z,89.95
2017-11-25T14:13:50.081Z,89.32
2017-11-25T14:16:16.262Z,89.88
2017-11-25T14:18:42.569Z,89.24
2017-11-25T14:21:08.704Z,89.60
2017-11-25T14:23:36.702Z,90.27
2017-11-25T14:26:03.169Z,89.33
2017-11-25T14:28:29.436Z,89.41
2017-11-25T14:30:55.833Z,89.07
2017-11-25T14:33:22.041Z,88.70
2017-11-25T14:35:49.439Z,88.69
2017-11-25T14:38:15.681Z,88.73
2017-11-25T14:40:41.980Z,88.90
2017-11-25T14:43:08.239Z,88.41
2017-11-25T14:45:34.449Z,88.42
2017-11-25T14:48:00.764Z,88.70
2017-11-25T14:50:27.309Z,88.91
2017-11-25T14:52:53.417Z,89.21
2017-11-25T14:55:19.729Z,88.99
2017-11-25T14:57:46.020Z,89.08
2017-11-25T15:00:13.293Z,89.23
2017-11-25T15:02:39.527Z,89.51
2017-11-25T15:05:05.653Z,88.87
2017-11-25T15:10:10.153Z,89.63
2017-11-25T15:12:36.273Z,89.42
2017-11-25T15:15:02.757Z,89.78
2017-11-25T15:17:29.050Z,89.76
2017-11-25T15:19:55.387Z,90.06
2017-11-25T15:22:21.605Z,90.45
2017-11-25T15:24:47.819Z,90.02
2017-11-25T15:27:14.130Z,89.71
2017-11-25T15:29:40.252Z,89.26
2017-11-25T15:32:06.369Z,89.66
2017-11-25T15:34:32.993Z,89.99
2017-11-25T15:36:59.442Z,90.39
2017-11-25T15:39:25.881Z,90.07
2017-11-25T15:41:52.382Z,90.21
2017-11-25T15:44:18.992Z,90.81
2017-11-25T15:46:45.352Z,89.14
2017-11-25T15:49:11.652Z,89.13
2017-11-25T15:51:38.081Z,88.62
2017-11-25T15:54:04.559Z,89.07
2017-11-25T15:56:30.741Z,87.99
2017-11-25T15:58:56.950Z,88.49
2017-11-25T16:01:23.031Z,88.94
2017-11-25T16:03:49.151Z,89.23
2017-11-25T16:06:16.794Z,89.28
2017-11-25T16:08:43.668Z,89.22
2017-11-25T16:11:09.906Z,88.29
2017-11-25T16:13:36.165Z,87.89
2017-11-25T16:16:02.329Z,87.60
2017-11-25T16:18:28.536Z,87.86
2017-11-25T16:20:54.954Z,88.03
2017-11-25T16:23:21.112Z,87.94
2017-11-25T16:25:47.582Z,88.27
2017-11-25T16:28:14.417Z,88.78
2017-11-25T16:30:41.144Z,88.62
2017-11-25T16:33:07.374Z,88.80
2017-11-25T16:35:33.967Z,88.53
2017-11-25T16:38:00.642Z,88.27
2017-11-25T16:40:26.977Z,88.27
2017-11-25T16:42:53.326Z,86.67
2017-11-25T16:45:19.383Z,86.55
2017-11-25T16:47:45.444Z,86.33
2017-11-25T16:50:11.529Z,85.61
2017-11-25T16:52:37.727Z,85.79
2017-11-25T16:55:03.920Z,85.29
2017-11-25T16:57:30.024Z,84.41
2017-11-25T16:59:56.284Z,84.94
2017-11-25T17:02:22.402Z,84.51
2017-11-25T17:04:49.034Z,84.18
2017-11-25T17:07:15.161Z,83.10
2017-11-25T17:09:41.506Z,83.24
2017-11-25T17:12:07.622Z,83.31
2017-11-25T17:14:33.736Z,83.30
2017-11-25T17:17:00.194Z,83.59
2017-11-25T17:19:26.611Z,83.05
2017-11-25T17:21:54.959Z,82.60
2017-11-25T17:24:21.432Z,82.23
2017-11-25T17:26:47.907Z,83.36
2017-11-25T17:29:15.458Z,83.44
2017-11-25T17:31:42.120Z,83.01
2017-11-25T17:34:09.636Z,83.20
2017-11-25T17:36:36.269Z,83.30
2017-11-25T17:39:02.935Z,83.67
2017-11-25T17:41:29.426Z,83.95
2017-11-25T17:43:56.938Z,84.35
2017-11-25T17:46:23.174Z,84.80
2017-11-25T17:48:49.271Z,84.76
2017-11-25T17:51:15.408Z,85.06
2017-11-25T17:53:41.851Z,85.19
2017-11-25T17:56:07.987Z,85.14
2017-11-25T17:58:34.117Z,85.26
2017-11-25T18:01:00.247Z,85.39
2017-11-25T18:03:26.786Z,85.17
2017-11-25T18:05:52.958Z,85.68
2017-11-25T18:08:19.284Z,85.55
2017-11-25T18:10:45.378Z,85.66
2017-11-25T18:13:11.677Z,86.17
2017-11-25T18:15:37.871Z,86.23
2017-11-25T18:18:04.149Z,85.73
2017-11-25T18:20:30.269Z,85.13
2017-11-25T18:22:56.582Z,85.04
2017-11-25T18:25:23.209Z,84.61
2017-11-25T18:27:49.384Z,83.94
2017-11-25T18:30:15.649Z,83.80
2017-11-25T18:32:41.931Z,83.13
2017-11-25T18:35:08.432Z,83.19
2017-11-25T18:37:34.548Z,83.27
2017-11-25T18:40:00.804Z,83.21
2017-11-25T18:42:27.685Z,83.38
2017-11-25T18:44:54.114Z,83.73
2017-11-25T18:47:20.224Z,83.89
2017-11-25T18:49:46.693Z,84.09
2017-11-25T18:52:12.823Z,83.79
2017-11-25T18:54:38.920Z,84.00
2017-11-25T18:57:05.123Z,83.62
2017-11-25T18:59:31.734Z,84.06
2017-11-25T19:01:58.340Z,83.83
2017-11-25T19:04:24.652Z,84.04
2017-11-25T19:06:52.653Z,84.11
2017-11-25T19:09:19.050Z,84.34
2017-11-25T19:11:54.013Z,84.43
2017-11-25T19:14:20.685Z,84.55
2017-11-25T19:16:46.916Z,85.51
2017-11-25T19:19:14.934Z,86.15
2017-11-25T19:21:42.727Z,86.24
2017-11-25T19:28:44.185Z,86.00
2017-11-25T19:31:10.843Z,87.29
2017-11-25T19:33:37.084Z,88.20
2017-11-25T19:36:03.423Z,88.67
2017-11-25T19:38:29.605Z,89.00
2017-11-25T19:40:55.810Z,88.49
2017-11-25T19:43:22.658Z,88.89
2017-11-25T19:45:48.768Z,88.77
2017-11-25T19:48:14.787Z,89.52
2017-11-25T19:50:41.375Z,87.91
2017-11-25T19:53:07.620Z,88.73
2017-11-25T19:55:33.922Z,88.59
2017-11-25T19:58:00.286Z,88.56
2017-11-25T20:00:26.885Z,88.33
2017-11-25T20:02:52.969Z,88.67
2017-11-25T20:05:19.896Z,88.61
2017-11-25T20:07:46.233Z,89.08
2017-11-25T20:10:12.551Z,89.24
2017-11-25T20:12:39.093Z,89.27
2017-11-25T20:15:05.330Z,90.14
2017-11-25T20:17:31.495Z,89.66
2017-11-25T20:19:57.745Z,89.97
2017-11-25T20:22:23.922Z,89.91
2017-11-25T20:24:50.303Z,90.47
2017-11-25T20:27:17.054Z,90.90
2017-11-25T20:29:43.772Z,91.25
2017-11-25T20:32:10.248Z,91.53
2017-11-25T20:34:36.571Z,92.52
2017-11-25T20:37:02.849Z,92.48
2017-11-25T20:39:29.241Z,92.94
2017-11-25T20:41:55.820Z,93.57
2017-11-25T20:44:22.411Z,93.30
2017-11-25T20:46:48.561Z,93.56
2017-11-25T20:49:14.691Z,93.73
2017-11-25T20:51:40.913Z,93.53
2017-11-25T20:54:07.219Z,93.34
2017-11-25T20:56:34.018Z,93.33
2017-11-25T20:59:00.257Z,93.39
2017-11-25T21:01:26.707Z,93.01
2017-11-25T21:03:53.063Z,93.08
2017-11-25T21:06:19.425Z,92.99
2017-11-25T21:08:45.651Z,93.10
2017-11-25T21:11:11.758Z,93.35
2017-11-25T21:13:38.653Z,93.46
2017-11-25T21:16:04.723Z,93.64
2017-11-25T21:18:30.941Z,92.92
2017-11-25T21:20:57.161Z,93.14
2017-11-25T21:25:55.142Z,93.02
2017-11-25T21:28:21.363Z,93.07
2017-11-25T21:30:47.495Z,92.66
2017-11-25T21:33:13.769Z,92.46
2017-11-25T21:35:39.864Z,92.60
2017-11-25T21:38:06.337Z,92.73
2017-11-25T21:40:32.474Z,92.13
2017-11-25T21:42:58.857Z,91.70
2017-11-25T21:45:25.231Z,91.76
2017-11-25T21:47:51.514Z,91.54
2017-11-25T21:50:17.635Z,91.62
2017-11-25T21:52:44.005Z,91.51
2017-11-25T21:55:10.210Z,91.06
2017-11-25T21:57:36.373Z,91.43
2017-11-25T22:00:02.457Z,90.44
2017-11-25T22:02:28.696Z,90.70
2017-11-25T22:04:54.891Z,90.31
2017-11-25T22:07:20.985Z,90.49
2017-11-25T22:09:47.183Z,90.74
2017-11-25T22:12:13.355Z,90.48
2017-11-25T22:14:39.569Z,90.89
2017-11-25T22:17:05.714Z,90.64
2017-11-25T22:19:31.797Z,90.73
2017-11-25T22:21:58.081Z,90.14
2017-11-25T22:24:24.346Z,89.73
2017-11-25T22:26:50.511Z,89.88
2017-11-25T22:29:16.615Z,89.22
2017-11-25T22:31:42.661Z,88.67
2017-11-25T22:34:08.911Z,88.56
2017-11-25T22:36:35.156Z,88.51
2017-11-25T22:39:01.380Z,88.80
2017-11-25T22:41:27.405Z,88.24
2017-11-25T22:43:53.490Z,88.27
2017-11-25T22:46:19.578Z,87.41
2017-11-25T22:48:45.602Z,87.38
2017-11-25T22:51:11.821Z,87.21
2017-11-25T22:53:37.950Z,87.60
2017-11-25T22:56:04.049Z,87.31
2017-11-25T22:58:30.085Z,86.93
2017-11-25T23:00:56.276Z,86.57
2017-11-25T23:03:23.115Z,86.80
2017-11-25T23:08:50.120Z,86.92
2017-11-25T23:11:16.131Z,87.18
2017-11-25T23:13:42.262Z,87.31
2017-11-25T23:16:09.217Z,87.54
2017-11-25T23:18:35.461Z,87.40
2017-11-25T23:21:01.609Z,87.24
2017-11-25T23:23:27.812Z,87.43
2017-11-25T23:25:53.937Z,87.64
2017-11-25T23:28:20.146Z,87.74
2017-11-25T23:30:46.329Z,87.51
2017-11-25T23:33:12.507Z,87.24
2017-11-25T23:35:38.753Z,87.67
2017-11-25T23:38:04.790Z,88.14
2017-11-25T23:40:31.007Z,88.16
2017-11-25T23:42:57.246Z,88.64
2017-11-25T23:45:23.453Z,88.00
2017-11-25T23:47:49.623Z,87.86
2017-11-25T23:50:16.291Z,87.64
2017-11-25T23:52:45.106Z,87.36
2017-11-25T23:55:11.120Z,88.42
2017-11-25T23:57:37.400Z,87.81
